sensor_id;sensor_type;location;lat;lon;timestamp;temperature;humidity
39849;DHT22;25518;47.878;15.914;2023-08-31T00:01:12;13.50;99.90
39849;DHT22;25518;47.878;15.914;2023-08-31T00:03:42;13.40;99.90
39849;DHT22;25518;47.878;15.914;2023-08-31T00:06:15;13.30;99.90
39849;DHT22;25518;47.878;15.914;2023-08-31T00:08:46;13.20;99.90
39849;DHT22;25518;47.878;15.914;2023-08-31T00:11:17;13.30;99.90
39849;DHT22;25518;47.878;15.914;2023-08-31T00:13:48;13.20;99.90
39849;DHT22;25518;47.878;15.914;2023-08-31T00:16:24;13.20;99.90
39849;DHT22;25518;47.878;15.914;2023-08-31T00:18:57;13.20;99.90
39849;DHT22;25518;47.878;15.914;2023-08-31T00:21:28;13.20;99.90
39849;DHT22;25518;47.878;15.914;2023-08-31T00:24:01;13.20;99.90
39849;DHT22;25518;47.878;15.914;2023-08-31T00:26:32;13.30;99.90
39849;DHT22;25518;47.878;15.914;2023-08-31T00:29:03;13.20;99.90
39849;DHT22;25518;47.878;15.914;2023-08-31T00:31:36;13.20;99.90
39849;DHT22;25518;47.878;15.914;2023-08-31T00:34:07;13.20;99.90
39849;DHT22;25518;47.878;15.914;2023-08-31T00:36:38;13.30;99.90
39849;DHT22;25518;47.878;15.914;2023-08-31T00:39:09;13.30;99.90
39849;DHT22;25518;47.878;15.914;2023-08-31T00:41:41;13.30;99.90
39849;DHT22;25518;47.878;15.914;2023-08-31T00:44:12;13.40;99.90
39849;DHT22;25518;47.878;15.914;2023-08-31T00:46:43;13.30;99.90
39849;DHT22;25518;47.878;15.914;2023-08-31T00:49:14;13.10;99.90
39849;DHT22;25518;47.878;15.914;2023-08-31T00:51:45;13.10;99.90
39849;DHT22;25518;47.878;15.914;2023-08-31T00:54:19;13.10;99.90
39849;DHT22;25518;47.878;15.914;2023-08-31T00:56:53;12.90;99.90
39849;DHT22;25518;47.878;15.914;2023-08-31T00:59:25;13.10;99.90
39849;DHT22;25518;47.878;15.914;2023-08-31T01:02:11;13.20;99.90
39849;DHT22;25518;47.878;15.914;2023-08-31T01:04:58;13.00;99.90
39849;DHT22;25518;47.878;15.914;2023-08-31T01:07:54;13.10;99.90
39849;DHT22;25518;47.878;15.914;2023-08-31T01:10:55;13.20;99.90
39849;DHT22;25518;47.878;15.914;2023-08-31T01:13:31;13.10;99.90
39849;DHT22;25518;47.878;15.914;2023-08-31T01:16:06;13.20;99.90
39849;DHT22;25518;47.878;15.914;2023-08-31T01:18:39;13.30;99.90
39849;DHT22;25518;47.878;15.914;2023-08-31T01:21:20;13.20;99.90
39849;DHT22;25518;47.878;15.914;2023-08-31T01:23:56;13.20;99.90
39849;DHT22;25518;47.878;15.914;2023-08-31T01:26:28;13.20;99.90
39849;DHT22;25518;47.878;15.914;2023-08-31T01:28:59;13.10;99.90
39849;DHT22;25518;47.878;15.914;2023-08-31T01:31:30;13.20;99.90
39849;DHT22;25518;47.878;15.914;2023-08-31T01:34:01;13.00;99.90
39849;DHT22;25518;47.878;15.914;2023-08-31T01:36:36;12.90;99.90
39849;DHT22;25518;47.878;15.914;2023-08-31T01:39:21;12.90;99.90
39849;DHT22;25518;47.878;15.914;2023-08-31T01:42:00;12.90;99.90
39849;DHT22;25518;47.878;15.914;2023-08-31T01:44:34;12.90;99.90
39849;DHT22;25518;47.878;15.914;2023-08-31T01:47:07;12.80;99.90
39849;DHT22;25518;47.878;15.914;2023-08-31T01:49:39;12.90;99.90
39849;DHT22;25518;47.878;15.914;2023-08-31T01:52:10;12.90;99.90
39849;DHT22;25518;47.878;15.914;2023-08-31T01:54:41;12.90;99.90
39849;DHT22;25518;47.878;15.914;2023-08-31T01:57:12;13.00;99.90
39849;DHT22;25518;47.878;15.914;2023-08-31T01:59:43;13.00;99.90
39849;DHT22;25518;47.878;15.914;2023-08-31T02:02:14;13.00;99.90
39849;DHT22;25518;47.878;15.914;2023-08-31T02:04:46;12.50;99.90
39849;DHT22;25518;47.878;15.914;2023-08-31T02:07:18;12.90;99.90
39849;DHT22;25518;47.878;15.914;2023-08-31T02:09:49;12.80;99.90
39849;DHT22;25518;47.878;15.914;2023-08-31T02:12:20;12.80;99.90
39849;DHT22;25518;47.878;15.914;2023-08-31T02:14:51;12.80;99.90
39849;DHT22;25518;47.878;15.914;2023-08-31T02:17:22;12.90;99.90
39849;DHT22;25518;47.878;15.914;2023-08-31T02:19:53;12.80;99.90
39849;DHT22;25518;47.878;15.914;2023-08-31T02:22:24;12.80;99.90
39849;DHT22;25518;47.878;15.914;2023-08-31T02:24:55;12.90;99.90
39849;DHT22;25518;47.878;15.914;2023-08-31T02:27:26;12.90;99.90
39849;DHT22;25518;47.878;15.914;2023-08-31T02:29:57;12.60;99.90
39849;DHT22;25518;47.878;15.914;2023-08-31T02:32:28;12.80;99.90
39849;DHT22;25518;47.878;15.914;2023-08-31T02:34:59;12.80;99.90
39849;DHT22;25518;47.878;15.914;2023-08-31T02:37:30;12.50;99.90
39849;DHT22;25518;47.878;15.914;2023-08-31T02:40:01;12.80;99.90
39849;DHT22;25518;47.878;15.914;2023-08-31T02:42:33;12.50;99.90
39849;DHT22;25518;47.878;15.914;2023-08-31T02:45:04;12.80;99.90
39849;DHT22;25518;47.878;15.914;2023-08-31T02:47:35;12.90;99.90
39849;DHT22;25518;47.878;15.914;2023-08-31T02:50:07;12.70;99.90
39849;DHT22;25518;47.878;15.914;2023-08-31T02:52:39;12.80;99.90
39849;DHT22;25518;47.878;15.914;2023-08-31T02:55:10;12.80;99.90
39849;DHT22;25518;47.878;15.914;2023-08-31T02:57:41;12.90;99.90
39849;DHT22;25518;47.878;15.914;2023-08-31T03:00:12;12.90;99.90
39849;DHT22;25518;47.878;15.914;2023-08-31T03:20:18;12.90;99.90
39849;DHT22;25518;47.878;15.914;2023-08-31T03:22:49;12.80;99.90
39849;DHT22;25518;47.878;15.914;2023-08-31T03:25:20;12.80;99.90
39849;DHT22;25518;47.878;15.914;2023-08-31T03:27:51;12.80;99.90
39849;DHT22;25518;47.878;15.914;2023-08-31T03:30:22;12.90;99.90
39849;DHT22;25518;47.878;15.914;2023-08-31T03:32:53;13.00;99.90
39849;DHT22;25518;47.878;15.914;2023-08-31T03:35:24;13.00;99.90
39849;DHT22;25518;47.878;15.914;2023-08-31T03:37:58;12.80;99.90
39849;DHT22;25518;47.878;15.914;2023-08-31T03:40:29;12.90;99.90
39849;DHT22;25518;47.878;15.914;2023-08-31T03:43:00;12.60;99.90
39849;DHT22;25518;47.878;15.914;2023-08-31T03:45:30;12.90;99.90
39849;DHT22;25518;47.878;15.914;2023-08-31T03:48:01;12.80;99.90
39849;DHT22;25518;47.878;15.914;2023-08-31T03:50:33;11.60;99.90
39849;DHT22;25518;47.878;15.914;2023-08-31T03:53:04;12.90;99.90
39849;DHT22;25518;47.878;15.914;2023-08-31T03:55:36;12.90;99.90
39849;DHT22;25518;47.878;15.914;2023-08-31T03:58:08;12.80;99.90
39849;DHT22;25518;47.878;15.914;2023-08-31T04:00:39;12.80;99.90
39849;DHT22;25518;47.878;15.914;2023-08-31T04:03:10;12.80;99.90
39849;DHT22;25518;47.878;15.914;2023-08-31T04:05:41;12.90;99.90
39849;DHT22;25518;47.878;15.914;2023-08-31T04:08:12;12.80;99.90
39849;DHT22;25518;47.878;15.914;2023-08-31T04:10:43;12.80;99.90
39849;DHT22;25518;47.878;15.914;2023-08-31T04:13:14;12.80;99.90
39849;DHT22;25518;47.878;15.914;2023-08-31T04:15:45;12.80;99.90
39849;DHT22;25518;47.878;15.914;2023-08-31T04:18:16;12.80;99.90
39849;DHT22;25518;47.878;15.914;2023-08-31T04:20:53;12.40;99.90
39849;DHT22;25518;47.878;15.914;2023-08-31T04:23:25;12.80;99.90
39849;DHT22;25518;47.878;15.914;2023-08-31T04:25:55;13.00;99.90
39849;DHT22;25518;47.878;15.914;2023-08-31T04:28:28;12.90;99.90
39849;DHT22;25518;47.878;15.914;2023-08-31T04:30:59;12.90;99.90
39849;DHT22;25518;47.878;15.914;2023-08-31T04:33:30;12.80;99.90
39849;DHT22;25518;47.878;15.914;2023-08-31T04:36:01;12.90;99.90
39849;DHT22;25518;47.878;15.914;2023-08-31T04:38:33;12.80;99.90
39849;DHT22;25518;47.878;15.914;2023-08-31T04:41:05;12.80;99.90
39849;DHT22;25518;47.878;15.914;2023-08-31T04:43:36;12.70;99.90
39849;DHT22;25518;47.878;15.914;2023-08-31T04:46:07;12.60;99.90
39849;DHT22;25518;47.878;15.914;2023-08-31T04:48:38;12.70;99.90
39849;DHT22;25518;47.878;15.914;2023-08-31T04:51:28;12.60;99.90
39849;DHT22;25518;47.878;15.914;2023-08-31T04:53:59;12.70;99.90
39849;DHT22;25518;47.878;15.914;2023-08-31T04:56:33;12.80;99.90
39849;DHT22;25518;47.878;15.914;2023-08-31T04:59:04;12.90;99.90
39849;DHT22;25518;47.878;15.914;2023-08-31T05:01:35;12.80;99.90
39849;DHT22;25518;47.878;15.914;2023-08-31T05:04:06;12.80;99.90
39849;DHT22;25518;47.878;15.914;2023-08-31T05:06:37;12.80;99.90
39849;DHT22;25518;47.878;15.914;2023-08-31T05:09:08;12.80;99.90
39849;DHT22;25518;47.878;15.914;2023-08-31T05:11:40;12.70;99.90
39849;DHT22;25518;47.878;15.914;2023-08-31T05:14:11;12.80;99.90
39849;DHT22;25518;47.878;15.914;2023-08-31T05:16:42;12.80;99.90
39849;DHT22;25518;47.878;15.914;2023-08-31T05:19:13;12.80;99.90
39849;DHT22;25518;47.878;15.914;2023-08-31T05:21:44;12.90;99.90
39849;DHT22;25518;47.878;15.914;2023-08-31T05:24:15;13.00;99.90
39849;DHT22;25518;47.878;15.914;2023-08-31T05:26:46;12.90;99.90
39849;DHT22;25518;47.878;15.914;2023-08-31T05:29:17;13.10;99.90
39849;DHT22;25518;47.878;15.914;2023-08-31T05:31:48;13.10;99.90
39849;DHT22;25518;47.878;15.914;2023-08-31T05:34:21;13.10;99.90
39849;DHT22;25518;47.878;15.914;2023-08-31T05:36:53;13.10;99.90
39849;DHT22;25518;47.878;15.914;2023-08-31T05:39:24;13.30;99.90
39849;DHT22;25518;47.878;15.914;2023-08-31T05:41:56;13.30;99.90
39849;DHT22;25518;47.878;15.914;2023-08-31T05:44:27;13.40;99.90
39849;DHT22;25518;47.878;15.914;2023-08-31T05:46:58;13.40;99.90
39849;DHT22;25518;47.878;15.914;2023-08-31T05:49:29;13.50;99.90
39849;DHT22;25518;47.878;15.914;2023-08-31T05:52:00;13.50;99.90
39849;DHT22;25518;47.878;15.914;2023-08-31T05:54:31;13.60;99.90
39849;DHT22;25518;47.878;15.914;2023-08-31T05:57:02;13.70;99.90
39849;DHT22;25518;47.878;15.914;2023-08-31T05:59:34;13.70;99.90
39849;DHT22;25518;47.878;15.914;2023-08-31T06:02:05;13.80;99.90
39849;DHT22;25518;47.878;15.914;2023-08-31T06:04:36;13.80;99.90
39849;DHT22;25518;47.878;15.914;2023-08-31T06:07:07;13.80;99.90
39849;DHT22;25518;47.878;15.914;2023-08-31T06:09:38;13.90;99.90
39849;DHT22;25518;47.878;15.914;2023-08-31T06:12:09;14.00;99.90
39849;DHT22;25518;47.878;15.914;2023-08-31T06:14:40;14.10;99.90
39849;DHT22;25518;47.878;15.914;2023-08-31T06:17:11;14.20;99.90
39849;DHT22;25518;47.878;15.914;2023-08-31T06:19:44;14.20;99.90
39849;DHT22;25518;47.878;15.914;2023-08-31T06:22:15;14.10;99.90
39849;DHT22;25518;47.878;15.914;2023-08-31T06:24:46;14.30;99.90
39849;DHT22;25518;47.878;15.914;2023-08-31T06:27:17;14.20;99.90
39849;DHT22;25518;47.878;15.914;2023-08-31T06:29:48;14.40;99.90
39849;DHT22;25518;47.878;15.914;2023-08-31T06:32:19;14.40;99.90
39849;DHT22;25518;47.878;15.914;2023-08-31T06:34:50;14.60;99.90
39849;DHT22;25518;47.878;15.914;2023-08-31T06:37:21;14.60;99.90
39849;DHT22;25518;47.878;15.914;2023-08-31T06:39:52;14.70;99.90
39849;DHT22;25518;47.878;15.914;2023-08-31T06:42:23;14.80;99.90
39849;DHT22;25518;47.878;15.914;2023-08-31T06:44:54;14.80;99.90
39849;DHT22;25518;47.878;15.914;2023-08-31T06:47:27;14.90;99.90
39849;DHT22;25518;47.878;15.914;2023-08-31T06:49:59;15.00;99.90
39849;DHT22;25518;47.878;15.914;2023-08-31T06:52:30;15.00;99.90
39849;DHT22;25518;47.878;15.914;2023-08-31T06:55:01;15.10;99.90
39849;DHT22;25518;47.878;15.914;2023-08-31T06:57:33;15.10;99.90
39849;DHT22;25518;47.878;15.914;2023-08-31T07:00:06;15.10;99.90
39849;DHT22;25518;47.878;15.914;2023-08-31T07:02:40;15.10;99.90
39849;DHT22;25518;47.878;15.914;2023-08-31T07:05:12;15.10;99.90
39849;DHT22;25518;47.878;15.914;2023-08-31T07:07:43;15.20;99.90
39849;DHT22;25518;47.878;15.914;2023-08-31T07:10:14;15.30;99.90
39849;DHT22;25518;47.878;15.914;2023-08-31T07:12:45;15.40;99.90
39849;DHT22;25518;47.878;15.914;2023-08-31T07:15:16;15.60;99.90
39849;DHT22;25518;47.878;15.914;2023-08-31T07:17:48;15.70;99.90
39849;DHT22;25518;47.878;15.914;2023-08-31T07:20:19;15.90;99.90
39849;DHT22;25518;47.878;15.914;2023-08-31T07:22:50;16.10;99.90
39849;DHT22;25518;47.878;15.914;2023-08-31T07:25:21;16.20;99.90
39849;DHT22;25518;47.878;15.914;2023-08-31T07:27:51;16.30;99.90
39849;DHT22;25518;47.878;15.914;2023-08-31T07:30:23;16.30;99.90
39849;DHT22;25518;47.878;15.914;2023-08-31T07:32:54;16.30;99.90
39849;DHT22;25518;47.878;15.914;2023-08-31T07:35:25;16.30;99.90
39849;DHT22;25518;47.878;15.914;2023-08-31T07:37:56;16.20;99.90
39849;DHT22;25518;47.878;15.914;2023-08-31T07:40:27;16.20;99.90
39849;DHT22;25518;47.878;15.914;2023-08-31T07:42:58;16.10;99.90
39849;DHT22;25518;47.878;15.914;2023-08-31T07:45:29;16.20;99.90
39849;DHT22;25518;47.878;15.914;2023-08-31T07:48:00;16.20;99.90
39849;DHT22;25518;47.878;15.914;2023-08-31T07:50:30;16.30;99.90
39849;DHT22;25518;47.878;15.914;2023-08-31T07:53:01;16.40;99.90
39849;DHT22;25518;47.878;15.914;2023-08-31T07:55:34;16.50;99.90
39849;DHT22;25518;47.878;15.914;2023-08-31T07:58:06;16.60;99.90
39849;DHT22;25518;47.878;15.914;2023-08-31T08:00:37;16.70;99.90
39849;DHT22;25518;47.878;15.914;2023-08-31T08:03:08;16.60;99.90
39849;DHT22;25518;47.878;15.914;2023-08-31T08:05:40;16.60;99.90
39849;DHT22;25518;47.878;15.914;2023-08-31T08:08:12;16.60;99.90
39849;DHT22;25518;47.878;15.914;2023-08-31T08:10:43;16.60;99.90
39849;DHT22;25518;47.878;15.914;2023-08-31T08:13:14;16.50;99.90
39849;DHT22;25518;47.878;15.914;2023-08-31T08:15:46;16.50;99.90
39849;DHT22;25518;47.878;15.914;2023-08-31T08:18:17;16.40;99.90
39849;DHT22;25518;47.878;15.914;2023-08-31T08:20:50;16.50;99.90
39849;DHT22;25518;47.878;15.914;2023-08-31T08:23:21;16.60;99.90
39849;DHT22;25518;47.878;15.914;2023-08-31T08:25:52;16.60;99.90
39849;DHT22;25518;47.878;15.914;2023-08-31T08:28:23;16.80;99.90
39849;DHT22;25518;47.878;15.914;2023-08-31T08:30:54;17.00;99.90
39849;DHT22;25518;47.878;15.914;2023-08-31T08:33:25;17.00;99.90
39849;DHT22;25518;47.878;15.914;2023-08-31T08:35:57;17.20;99.90
39849;DHT22;25518;47.878;15.914;2023-08-31T08:38:28;17.20;99.90
39849;DHT22;25518;47.878;15.914;2023-08-31T08:41:05;17.30;99.90
39849;DHT22;25518;47.878;15.914;2023-08-31T08:43:37;17.20;99.90
39849;DHT22;25518;47.878;15.914;2023-08-31T08:46:10;17.40;99.90
39849;DHT22;25518;47.878;15.914;2023-08-31T08:48:42;17.50;99.90
39849;DHT22;25518;47.878;15.914;2023-08-31T08:51:13;17.60;99.90
39849;DHT22;25518;47.878;15.914;2023-08-31T08:53:45;17.80;99.90
39849;DHT22;25518;47.878;15.914;2023-08-31T08:56:17;15.90;99.90
39849;DHT22;25518;47.878;15.914;2023-08-31T08:58:48;17.80;99.90
39849;DHT22;25518;47.878;15.914;2023-08-31T09:01:19;17.90;99.90
39849;DHT22;25518;47.878;15.914;2023-08-31T09:03:53;17.90;99.90
39849;DHT22;25518;47.878;15.914;2023-08-31T09:06:24;15.70;99.90
39849;DHT22;25518;47.878;15.914;2023-08-31T09:08:56;17.90;99.90
39849;DHT22;25518;47.878;15.914;2023-08-31T09:11:27;18.00;99.90
39849;DHT22;25518;47.878;15.914;2023-08-31T09:13:58;18.20;99.90
39849;DHT22;25518;47.878;15.914;2023-08-31T09:16:30;18.00;99.90
39849;DHT22;25518;47.878;15.914;2023-08-31T09:19:18;18.20;99.90
39849;DHT22;25518;47.878;15.914;2023-08-31T09:21:51;18.30;99.90
39849;DHT22;25518;47.878;15.914;2023-08-31T09:24:23;18.60;99.90
39849;DHT22;25518;47.878;15.914;2023-08-31T09:26:57;18.90;99.90
39849;DHT22;25518;47.878;15.914;2023-08-31T09:29:28;19.00;99.90
39849;DHT22;25518;47.878;15.914;2023-08-31T09:32:00;19.10;99.90
39849;DHT22;25518;47.878;15.914;2023-08-31T09:34:34;19.20;99.90
39849;DHT22;25518;47.878;15.914;2023-08-31T09:37:06;19.30;99.90
39849;DHT22;25518;47.878;15.914;2023-08-31T09:39:40;19.20;99.90
39849;DHT22;25518;47.878;15.914;2023-08-31T09:42:12;19.50;99.90
39849;DHT22;25518;47.878;15.914;2023-08-31T09:44:43;19.70;99.90
39849;DHT22;25518;47.878;15.914;2023-08-31T09:47:17;19.50;99.90
39849;DHT22;25518;47.878;15.914;2023-08-31T09:49:49;19.50;99.90
39849;DHT22;25518;47.878;15.914;2023-08-31T09:52:21;19.70;99.90
39849;DHT22;25518;47.878;15.914;2023-08-31T09:54:53;19.80;99.90
39849;DHT22;25518;47.878;15.914;2023-08-31T09:57:26;19.80;99.90
39849;DHT22;25518;47.878;15.914;2023-08-31T09:59:58;19.80;99.90
39849;DHT22;25518;47.878;15.914;2023-08-31T10:02:29;20.00;99.90
39849;DHT22;25518;47.878;15.914;2023-08-31T10:05:01;20.00;99.90
39849;DHT22;25518;47.878;15.914;2023-08-31T10:07:32;19.90;99.90
39849;DHT22;25518;47.878;15.914;2023-08-31T10:10:04;19.80;99.90
39849;DHT22;25518;47.878;15.914;2023-08-31T10:12:36;19.60;99.90
39849;DHT22;25518;47.878;15.914;2023-08-31T10:15:07;19.80;99.90
39849;DHT22;25518;47.878;15.914;2023-08-31T10:17:40;19.90;99.90
39849;DHT22;25518;47.878;15.914;2023-08-31T10:20:15;19.80;99.90
39849;DHT22;25518;47.878;15.914;2023-08-31T10:22:47;20.20;99.90
39849;DHT22;25518;47.878;15.914;2023-08-31T10:25:17;20.60;99.90
39849;DHT22;25518;47.878;15.914;2023-08-31T10:27:48;20.40;99.90
39849;DHT22;25518;47.878;15.914;2023-08-31T10:30:24;20.40;99.90
39849;DHT22;25518;47.878;15.914;2023-08-31T10:33:19;20.40;99.90
39849;DHT22;25518;47.878;15.914;2023-08-31T10:35:55;19.90;99.90
39849;DHT22;25518;47.878;15.914;2023-08-31T10:43:54;20.00;99.90
39849;DHT22;25518;47.878;15.914;2023-08-31T10:46:33;20.00;99.90
39849;DHT22;25518;47.878;15.914;2023-08-31T10:49:14;19.90;99.90
39849;DHT22;25518;47.878;15.914;2023-08-31T10:51:53;19.60;99.90
39849;DHT22;25518;47.878;15.914;2023-08-31T10:54:33;19.30;99.90
39849;DHT22;25518;47.878;15.914;2023-08-31T10:57:06;19.00;99.90
39849;DHT22;25518;47.878;15.914;2023-08-31T11:07:47;19.60;99.90
39849;DHT22;25518;47.878;15.914;2023-08-31T11:10:23;19.80;99.90
39849;DHT22;25518;47.878;15.914;2023-08-31T11:12:55;19.90;99.90
39849;DHT22;25518;47.878;15.914;2023-08-31T11:15:28;20.20;99.90
39849;DHT22;25518;47.878;15.914;2023-08-31T11:18:00;20.10;99.90
39849;DHT22;25518;47.878;15.914;2023-08-31T11:20:32;20.40;99.90
39849;DHT22;25518;47.878;15.914;2023-08-31T11:23:03;20.30;99.90
39849;DHT22;25518;47.878;15.914;2023-08-31T11:25:34;20.50;99.90
39849;DHT22;25518;47.878;15.914;2023-08-31T11:28:07;20.70;99.90
39849;DHT22;25518;47.878;15.914;2023-08-31T11:30:38;20.70;99.90
39849;DHT22;25518;47.878;15.914;2023-08-31T11:33:10;20.50;99.90
39849;DHT22;25518;47.878;15.914;2023-08-31T11:35:43;20.50;99.90
39849;DHT22;25518;47.878;15.914;2023-08-31T11:38:16;20.50;99.90
39849;DHT22;25518;47.878;15.914;2023-08-31T11:40:47;20.40;99.90
39849;DHT22;25518;47.878;15.914;2023-08-31T11:43:19;18.90;99.90
39849;DHT22;25518;47.878;15.914;2023-08-31T11:45:51;20.50;99.90
39849;DHT22;25518;47.878;15.914;2023-08-31T11:48:22;20.90;99.90
39849;DHT22;25518;47.878;15.914;2023-08-31T11:50:54;21.20;99.90
39849;DHT22;25518;47.878;15.914;2023-08-31T11:53:27;21.00;99.90
39849;DHT22;25518;47.878;15.914;2023-08-31T11:56:02;20.80;99.90
39849;DHT22;25518;47.878;15.914;2023-08-31T11:58:39;20.60;99.90
39849;DHT22;25518;47.878;15.914;2023-08-31T12:01:18;20.60;99.90
39849;DHT22;25518;47.878;15.914;2023-08-31T12:03:50;20.80;99.90
39849;DHT22;25518;47.878;15.914;2023-08-31T12:06:21;20.80;99.90
39849;DHT22;25518;47.878;15.914;2023-08-31T12:08:53;20.60;99.90
39849;DHT22;25518;47.878;15.914;2023-08-31T12:11:24;20.30;99.90
39849;DHT22;25518;47.878;15.914;2023-08-31T12:14:00;20.00;99.90
39849;DHT22;25518;47.878;15.914;2023-08-31T12:16:34;20.10;99.90
39849;DHT22;25518;47.878;15.914;2023-08-31T12:19:06;20.00;99.90
39849;DHT22;25518;47.878;15.914;2023-08-31T12:21:37;19.70;99.90
39849;DHT22;25518;47.878;15.914;2023-08-31T12:24:08;19.90;99.90
39849;DHT22;25518;47.878;15.914;2023-08-31T12:26:40;19.80;99.90
39849;DHT22;25518;47.878;15.914;2023-08-31T12:29:11;19.90;99.90
39849;DHT22;25518;47.878;15.914;2023-08-31T12:31:42;18.30;99.90
39849;DHT22;25518;47.878;15.914;2023-08-31T12:34:14;19.80;99.90
39849;DHT22;25518;47.878;15.914;2023-08-31T12:36:45;19.80;99.90
39849;DHT22;25518;47.878;15.914;2023-08-31T12:39:16;19.80;99.90
39849;DHT22;25518;47.878;15.914;2023-08-31T12:41:47;19.70;99.90
39849;DHT22;25518;47.878;15.914;2023-08-31T12:44:18;19.70;99.90
39849;DHT22;25518;47.878;15.914;2023-08-31T12:46:49;19.70;99.90
39849;DHT22;25518;47.878;15.914;2023-08-31T12:49:20;19.40;99.90
39849;DHT22;25518;47.878;15.914;2023-08-31T12:51:52;19.40;99.90
39849;DHT22;25518;47.878;15.914;2023-08-31T12:54:23;19.50;99.90
39849;DHT22;25518;47.878;15.914;2023-08-31T12:56:54;19.80;99.90
39849;DHT22;25518;47.878;15.914;2023-08-31T12:59:25;19.60;99.90
39849;DHT22;25518;47.878;15.914;2023-08-31T13:01:56;19.30;99.90
39849;DHT22;25518;47.878;15.914;2023-08-31T13:04:28;19.20;99.90
39849;DHT22;25518;47.878;15.914;2023-08-31T13:06:59;19.20;99.90
39849;DHT22;25518;47.878;15.914;2023-08-31T13:09:30;19.00;99.90
39849;DHT22;25518;47.878;15.914;2023-08-31T13:12:00;19.20;99.90
39849;DHT22;25518;47.878;15.914;2023-08-31T13:14:31;19.90;99.90
39849;DHT22;25518;47.878;15.914;2023-08-31T13:17:02;20.30;99.90
39849;DHT22;25518;47.878;15.914;2023-08-31T13:19:34;20.60;99.90
39849;DHT22;25518;47.878;15.914;2023-08-31T13:22:05;20.60;99.90
39849;DHT22;25518;47.878;15.914;2023-08-31T13:24:36;20.80;99.90
39849;DHT22;25518;47.878;15.914;2023-08-31T13:27:07;20.80;99.90
39849;DHT22;25518;47.878;15.914;2023-08-31T13:29:38;20.70;99.90
39849;DHT22;25518;47.878;15.914;2023-08-31T13:32:09;20.80;99.90
39849;DHT22;25518;47.878;15.914;2023-08-31T13:34:40;20.80;99.90
39849;DHT22;25518;47.878;15.914;2023-08-31T13:37:11;20.90;99.90
39849;DHT22;25518;47.878;15.914;2023-08-31T13:39:42;21.20;99.90
39849;DHT22;25518;47.878;15.914;2023-08-31T13:42:13;20.20;99.90
39849;DHT22;25518;47.878;15.914;2023-08-31T13:44:44;21.10;99.90
39849;DHT22;25518;47.878;15.914;2023-08-31T13:47:16;21.20;99.90
39849;DHT22;25518;47.878;15.914;2023-08-31T13:49:46;21.70;99.90
39849;DHT22;25518;47.878;15.914;2023-08-31T13:52:17;21.70;99.90
39849;DHT22;25518;47.878;15.914;2023-08-31T13:54:51;21.70;99.90
39849;DHT22;25518;47.878;15.914;2023-08-31T13:57:23;22.10;99.90
39849;DHT22;25518;47.878;15.914;2023-08-31T13:59:54;22.40;99.90
39849;DHT22;25518;47.878;15.914;2023-08-31T14:02:25;22.50;99.90
39849;DHT22;25518;47.878;15.914;2023-08-31T14:04:56;22.40;99.90
39849;DHT22;25518;47.878;15.914;2023-08-31T14:07:27;22.40;99.90
39849;DHT22;25518;47.878;15.914;2023-08-31T14:09:58;22.60;99.90
39849;DHT22;25518;47.878;15.914;2023-08-31T14:12:29;23.10;99.90
39849;DHT22;25518;47.878;15.914;2023-08-31T14:15:00;23.10;99.90
39849;DHT22;25518;47.878;15.914;2023-08-31T14:17:34;22.80;99.90
39849;DHT22;25518;47.878;15.914;2023-08-31T14:20:06;22.10;99.90
39849;DHT22;25518;47.878;15.914;2023-08-31T14:22:39;21.90;99.90
39849;DHT22;25518;47.878;15.914;2023-08-31T14:25:14;22.00;99.90
39849;DHT22;25518;47.878;15.914;2023-08-31T14:27:47;21.70;99.90
39849;DHT22;25518;47.878;15.914;2023-08-31T14:30:19;21.90;99.90
39849;DHT22;25518;47.878;15.914;2023-08-31T14:32:50;21.80;99.90
39849;DHT22;25518;47.878;15.914;2023-08-31T14:35:20;21.50;99.90
39849;DHT22;25518;47.878;15.914;2023-08-31T14:37:51;21.20;99.90
39849;DHT22;25518;47.878;15.914;2023-08-31T14:40:23;21.40;99.90
39849;DHT22;25518;47.878;15.914;2023-08-31T14:42:54;21.20;99.90
39849;DHT22;25518;47.878;15.914;2023-08-31T14:45:25;21.00;99.90
39849;DHT22;25518;47.878;15.914;2023-08-31T14:47:55;21.10;99.90
39849;DHT22;25518;47.878;15.914;2023-08-31T14:50:26;21.20;99.90
39849;DHT22;25518;47.878;15.914;2023-08-31T14:52:57;21.30;99.90
39849;DHT22;25518;47.878;15.914;2023-08-31T14:55:28;21.00;99.90
39849;DHT22;25518;47.878;15.914;2023-08-31T14:57:59;20.90;99.90
39849;DHT22;25518;47.878;15.914;2023-08-31T15:00:30;21.20;99.90
39849;DHT22;25518;47.878;15.914;2023-08-31T15:03:01;21.40;99.90
39849;DHT22;25518;47.878;15.914;2023-08-31T15:05:35;21.30;99.90
39849;DHT22;25518;47.878;15.914;2023-08-31T15:08:06;21.20;99.90
39849;DHT22;25518;47.878;15.914;2023-08-31T15:10:37;20.90;99.90
39849;DHT22;25518;47.878;15.914;2023-08-31T15:13:09;20.60;99.90
39849;DHT22;25518;47.878;15.914;2023-08-31T15:15:44;20.70;99.90
39849;DHT22;25518;47.878;15.914;2023-08-31T15:18:15;20.70;99.90
39849;DHT22;25518;47.878;15.914;2023-08-31T15:20:47;20.30;99.90
39849;DHT22;25518;47.878;15.914;2023-08-31T15:23:18;20.20;99.90
39849;DHT22;25518;47.878;15.914;2023-08-31T15:25:49;20.20;99.90
39849;DHT22;25518;47.878;15.914;2023-08-31T15:28:20;20.10;99.90
39849;DHT22;25518;47.878;15.914;2023-08-31T15:30:51;20.10;99.90
39849;DHT22;25518;47.878;15.914;2023-08-31T15:33:22;20.10;99.90
39849;DHT22;25518;47.878;15.914;2023-08-31T15:36:10;20.10;99.90
39849;DHT22;25518;47.878;15.914;2023-08-31T15:38:41;20.00;99.90
39849;DHT22;25518;47.878;15.914;2023-08-31T15:41:13;20.20;99.90
39849;DHT22;25518;47.878;15.914;2023-08-31T15:43:45;20.40;99.90
39849;DHT22;25518;47.878;15.914;2023-08-31T15:46:18;20.20;99.90
39849;DHT22;25518;47.878;15.914;2023-08-31T15:48:49;20.30;99.90
39849;DHT22;25518;47.878;15.914;2023-08-31T15:51:21;20.40;99.90
39849;DHT22;25518;47.878;15.914;2023-08-31T15:53:52;20.40;99.90
39849;DHT22;25518;47.878;15.914;2023-08-31T15:56:23;20.40;99.90
39849;DHT22;25518;47.878;15.914;2023-08-31T15:58:54;20.30;99.90
39849;DHT22;25518;47.878;15.914;2023-08-31T16:01:25;20.10;99.90
39849;DHT22;25518;47.878;15.914;2023-08-31T16:03:56;18.20;99.90
39849;DHT22;25518;47.878;15.914;2023-08-31T16:06:27;20.50;99.90
39849;DHT22;25518;47.878;15.914;2023-08-31T16:08:58;20.70;99.90
39849;DHT22;25518;47.878;15.914;2023-08-31T16:11:29;20.50;99.90
39849;DHT22;25518;47.878;15.914;2023-08-31T16:14:01;20.10;99.90
39849;DHT22;25518;47.878;15.914;2023-08-31T16:16:31;19.80;99.90